Date,TemperatureHighF,TemperatureAvgF,TemperatureLowF,DewpointHighF,DewpointAvgF,DewpointLowF,HumidityHigh,HumidityAvg,HumidityLow,PressureMaxIn,PressureMinIn,WindSpeedMaxMPH,WindSpeedAvgMPH,GustSpeedMaxMPH,PrecipitationSumIn
2013-1-1,36.8,33.9,30.8,36.0,31.2,27.0,97,89,81,30.34,30.09,12,6,16,0.00
2013-1-2,41.4,33.7,28.5,29.0,27.2,25.0,87,78,61,30.39,30.28,8,3,13,0.00
2013-1-3,45.6,36.2,26.9,31.0,26.1,24.0,89,69,43,30.53,30.38,10,3,16,0.00
2013-1-4,46.3,39.2,32.4,32.0,27.9,24.0,76,65,52,30.57,30.39,13,3,19,0.00
2013-1-5,53.0,42.6,35.4,36.0,34.2,32.0,92,74,49,30.39,30.22,13,4,20,0.00
2013-1-6,54.0,42.7,34.3,33.0,24.2,21.0,84,51,28,30.46,30.33,11,4,15,0.00
2013-1-7,51.7,41.3,31.9,33.0,27.4,21.0,71,59,44,30.37,30.14,11,4,18,0.00
2013-1-8,47.9,44.3,40.5,46.0,38.7,32.0,96,81,69,30.17,30.02,12,4,15,0.18
2013-1-9,53.7,50.2,46.8,53.0,49.2,46.0,97,96,95,30.25,30.06,18,8,28,0.45
2013-1-10,57.0,52.3,47.9,55.0,49.7,45.4,98,91,82,30.07,29.87,14,7,20,0.16
2013-1-11,69.0,57.0,47.2,57.0,48.6,43.0,91,75,50,29.92,29.73,21,9,28,0.00
2013-1-12,61.0,45.0,30.5,58.0,37.3,23.0,94,76,44,30.05,29.75,21,9,27,0.11
2013-1-13,35.4,29.3,24.2,23.3,18.5,14.8,76,64,48,30.40,30.00,19,9,23,0.01
2013-1-14,40.7,30.7,23.6,18.3,15.7,13.0,73,55,34,30.47,30.31,15,7,19,0.00
2013-1-15,35.2,30.1,25.7,24.0,19.9,17.0,76,66,53,30.34,30.24,10,5,16,0.00
2013-1-16,48.0,35.8,22.4,22.7,18.6,14.7,73,52,29,30.33,30.20,9,2,16,0.00
2013-1-17,55.7,45.2,35.8,33.7,29.1,20.0,75,55,38,30.54,30.29,13,5,19,0.00
2013-1-18,58.2,46.1,33.7,35.5,32.0,28.0,88,60,38,30.54,30.26,16,6,21,0.00
2013-1-19,64.5,51.7,40.5,40.7,37.3,34.0,78,60,37,30.26,30.13,11,6,16,0.00
2013-1-20,66.7,52.7,38.3,46.5,40.7,35.9,92,66,40,30.24,30.09,14,2,17,0.00
2013-1-21,49.3,41.0,30.2,39.3,21.4,13.5,75,47,32,30.37,30.18,18,7,22,0.00
2013-1-22,59.5,44.8,31.2,43.4,30.6,18.0,83,58,46,30.35,30.21,11,4,14,0.00
2013-1-23,72.5,55.0,38.2,53.9,46.3,35.0,90,74,47,30.27,30.12,13,4,17,0.00
2013-1-24,58.6,51.0,45.7,52.1,47.9,39.0,97,89,73,30.19,30.08,10,3,13,0.01
2013-1-25,51.4,41.8,34.7,44.0,35.2,30.6,95,78,60,30.27,30.10,12,5,14,0.00
2013-1-26,46.9,43.1,38.3,44.2,40.8,33.0,97,91,76,30.27,30.12,12,4,14,0.00
2013-1-27,68.8,56.1,44.2,61.0,52.9,43.0,98,89,72,30.13,29.91,28,8,28,0.00
2013-1-28,74.5,68.7,63.9,64.5,62.8,60.6,93,82,70,29.99,29.77,19,11,27,0.00
2013-1-29,73.1,63.2,50.9,65.0,54.9,29.9,95,76,40,29.79,29.46,26,9,37,0.28
2013-1-30,50.0,42.4,37.0,42.0,27.7,21.0,83,58,36,30.14,29.64,21,9,36,0.00
2013-1-31,64.1,45.0,30.7,30.6,24.3,18.4,73,48,22,30.42,30.10,24,6,28,0.00
2013-2-1,53.7,38.2,23.5,34.3,22.7,12.0,70,55,39,30.46,30.19,14,6,20,0.00
2013-2-2,62.4,48.1,34.6,35.6,31.4,27.6,76,55,33,30.35,30.18,11,4,17,0.00
2013-2-3,61.5,51.6,40.2,34.5,32.0,30.0,70,49,31,30.35,29.97,11,4,16,0.00
2013-2-4,70.8,60.4,52.2,51.0,44.3,29.9,89,57,36,29.98,29.80,18,6,25,0.00
2013-2-5,59.7,53.0,48.6,57.0,51.3,47.0,98,94,87,30.05,29.91,7,2,10,0.00
2013-2-6,59.7,54.6,51.1,59.1,53.7,50.4,99,97,92,30.06,29.88,12,6,22,0.00
2013-2-7,72.2,57.7,47.5,59.0,52.7,40.0,98,85,46,30.15,29.82,20,8,29,0.01
2013-2-8,57.5,47.6,37.8,40.0,33.1,26.0,78,60,31,30.32,30.15,15,6,17,0.00
2013-2-9,53.3,44.9,42.0,53.0,40.9,34.0,97,86,70,30.17,29.73,17,8,29,0.02
2013-2-10,62.9,55.4,48.1,57.0,34.1,25.0,98,49,24,30.05,29.69,17,4,22,0.36
2013-2-11,57.4,48.2,40.0,33.8,28.9,26.0,61,48,32,30.23,30.05,14,6,17,0.00
2013-2-12,45.8,41.2,36.6,41.0,37.6,32.9,95,88,61,30.09,29.91,15,6,23,0.72
2013-2-13,57.3,43.8,35.3,39.9,33.0,26.0,92,70,32,30.17,30.03,10,3,14,0.00
2013-2-14,64.4,50.7,36.0,37.3,32.6,28.6,88,55,26,30.20,30.02,13,3,21,0.00
2013-2-15,50.2,42.4,36.0,36.2,24.0,16.6,72,49,31,30.42,30.20,15,7,26,0.00
2013-2-16,53.1,41.6,32.3,31.7,26.1,19.0,86,57,32,30.46,30.17,10,4,14,0.00
2013-2-17,69.9,54.2,38.7,42.2,32.6,28.0,74,48,23,30.17,29.84,31,10,33,0.00
2013-2-18,66.3,56.6,45.5,53.2,40.6,28.0,83,57,31,30.16,29.71,27,11,34,0.00
2013-2-19,56.4,46.0,35.8,28.2,25.5,21.0,70,46,27,30.37,30.16,11,4,17,0.00
2013-2-20,46.7,38.5,35.3,37.0,33.3,25.0,94,83,43,30.27,29.89,18,8,27,0.66
2013-2-21,54.4,41.8,32.9,44.0,35.2,27.0,95,79,53,30.02,29.67,21,8,26,0.28
2013-2-22,43.8,33.6,25.6,27.1,21.2,17.0,81,61,46,30.22,30.01,13,5,20,0.00
2013-2-23,50.3,37.4,26.0,32.3,24.9,19.8,81,62,43,30.18,29.96,9,3,14,0.00
2013-2-24,64.2,49.9,34.2,42.7,35.7,28.0,80,60,39,29.97,29.67,18,8,26,0.00
2013-2-25,52.4,43.7,36.5,42.6,38.7,32.7,94,83,59,29.72,29.46,21,7,28,0.14
2013-2-26,52.4,43.4,36.5,33.3,30.7,25.0,85,63,37,29.95,29.64,24,9,31,0.00
2013-2-27,51.1,40.9,34.9,30.4,26.8,18.0,79,60,29,30.27,29.93,21,8,28,0.00
2013-2-28,53.2,41.4,31.1,29.0,26.6,23.7,83,59,33,30.32,30.23,19,8,27,0.00
2013-3-1,48.0,38.4,30.8,31.0,27.9,25.8,83,67,50,30.37,30.26,16,6,22,0.00
2013-3-2,51.2,39.0,25.6,28.0,24.2,20.0,82,58,38,30.48,30.26,12,4,16,0.00
2013-3-3,68.2,52.4,35.5,38.0,31.7,25.7,74,48,29,30.26,29.70,22,10,26,0.00
2013-3-4,77.5,63.7,46.6,44.3,40.4,32.6,75,45,26,29.89,29.59,31,10,34,0.00
2013-3-5,51.9,45.0,39.2,39.5,23.8,15.0,78,45,27,30.42,29.89,35,11,40,0.00
2013-3-6,56.0,43.8,32.1,23.4,20.8,16.0,64,42,21,30.51,30.22,10,4,11,0.00
2013-3-7,68.7,54.8,40.7,32.8,26.6,21.9,50,35,20,30.25,30.09,21,8,29,0.00
2013-3-8,60.9,56.2,52.4,55.0,47.0,32.0,88,73,42,30.17,29.96,17,9,22,0.00
2013-3-9,65.2,58.8,55.3,62.0,56.3,53.6,96,92,81,29.96,29.64,18,8,24,1.10
2013-3-10,57.0,45.6,37.7,54.3,36.0,29.0,95,69,57,30.12,29.69,21,8,28,0.01
2013-3-11,56.9,42.5,29.8,29.7,23.9,15.0,85,53,23,30.16,30.03,12,4,18,0.00
2013-3-12,61.4,50.6,38.1,38.2,30.3,22.0,65,47,29,30.36,30.06,16,4,17,0.00
2013-3-13,62.8,52.6,40.4,35.0,30.2,22.9,62,44,30,30.50,30.34,9,4,13,0.00
2013-3-14,76.8,60.9,45.6,46.2,40.2,33.0,64,48,30,30.36,30.15,17,7,22,0.00
2013-3-15,80.9,67.1,53.5,51.0,46.7,43.9,76,50,30,30.15,29.82,22,10,26,0.00
2013-3-16,79.5,68.8,58.2,58.0,51.2,43.0,71,54,39,29.82,29.66,17,9,26,0.00
2013-3-17,66.8,53.3,46.3,55.1,43.7,38.4,78,70,61,29.81,29.67,12,5,19,0.00
2013-3-18,63.5,52.8,43.5,43.8,39.9,35.0,89,65,35,30.05,29.66,15,6,21,0.00
2013-3-19,60.6,52.8,42.0,38.1,33.9,26.5,78,51,31,30.19,30.01,16,5,20,0.00
2013-3-20,61.9,52.5,40.9,37.1,29.8,25.6,63,44,25,30.36,30.06,11,4,13,0.00
2013-3-21,62.8,51.6,46.0,45.7,36.9,30.0,76,58,47,30.06,29.58,20,10,25,0.02
2013-3-22,47.4,43.9,39.3,42.0,39.0,36.3,90,83,69,29.92,29.63,19,8,25,0.00
2013-3-23,47.8,44.7,41.8,45.1,42.7,39.0,95,92,87,29.92,29.70,14,5,26,0.08
2013-3-24,47.7,40.0,34.4,38.8,25.5,16.0,89,59,30,30.25,29.89,25,12,34,0.00
2013-3-25,46.5,38.6,30.0,22.4,16.9,12.0,67,43,27,30.45,30.24,17,8,26,0.00
2013-3-26,54.9,41.5,28.5,27.2,19.4,14.7,64,43,27,30.54,30.32,9,3,10,0.00
2013-3-27,67.3,53.4,38.8,41.0,32.1,24.0,59,45,31,30.33,30.09,25,10,36,0.00
2013-3-28,68.0,59.9,49.1,55.5,49.6,40.7,83,69,55,30.20,30.07,20,9,26,0.00
2013-3-29,73.3,65.2,59.1,58.3,56.7,54.9,88,75,57,30.15,30.02,19,8,28,0.05
2013-3-30,77.0,66.1,55.7,63.0,58.8,53.5,94,78,59,30.03,29.86,26,7,39,0.12
2013-3-31,70.5,64.2,55.8,61.0,51.2,42.8,92,65,39,30.01,29.80,19,5,40,0.45
2013-4-1,76.1,63.9,51.8,48.6,44.4,41.0,73,52,30,30.09,29.96,18,4,24,0.00
2013-4-2,56.6,47.4,41.5,48.0,44.2,40.0,95,89,64,30.12,29.97,17,9,27,0.41
2013-4-3,43.1,41.4,39.3,41.0,39.0,36.9,96,91,79,30.22,30.06,15,7,21,0.37
2013-4-4,51.7,43.7,38.8,41.3,38.9,37.0,95,84,66,30.26,30.16,11,5,15,0.02
2013-4-5,65.7,52.6,37.4,48.3,42.2,35.0,92,70,47,30.28,30.01,15,5,19,0.00
2013-4-6,73.9,63.9,54.4,57.3,51.2,46.0,80,65,47,30.01,29.82,17,10,30,0.00
2013-4-7,69.1,64.3,58.5,61.3,58.9,55.0,90,83,76,29.87,29.70,21,10,28,0.00
2013-4-8,75.2,69.2,64.4,64.0,61.7,58.5,85,77,65,29.71,29.62,22,13,32,0.00
2013-4-9,78.1,70.7,50.2,66.0,62.0,42.0,86,74,62,29.77,29.60,27,12,35,0.00
2013-4-10,49.8,39.0,35.0,41.8,34.5,31.8,91,84,73,30.04,29.75,22,10,34,0.58
2013-4-11,58.7,45.0,33.9,38.0,31.8,27.0,84,62,38,30.04,29.85,11,4,13,0.00
2013-4-12,69.5,55.8,42.7,44.1,40.5,36.4,81,59,37,30.04,29.87,10,3,13,0.00
2013-4-13,74.2,63.0,51.1,49.2,44.6,40.0,68,53,35,30.02,29.76,16,7,24,0.00
2013-4-14,79.3,67.6,56.3,64.0,55.5,47.0,82,66,50,29.78,29.50,30,10,34,0.00
2013-4-15,85.4,75.6,67.0,68.2,65.6,63.0,90,72,53,29.71,29.55,19,10,25,0.00
2013-4-16,82.1,74.9,69.7,67.0,65.5,63.9,85,73,59,29.89,29.71,17,7,27,0.00
2013-4-17,81.5,75.6,70.8,69.3,67.4,65.9,93,76,62,29.85,29.52,23,12,35,0.00
2013-4-18,75.9,49.5,40.9,69.5,39.7,30.5,91,70,50,30.18,29.53,28,11,33,0.47
2013-4-19,62.9,48.7,36.2,34.3,28.4,20.7,74,49,26,30.29,30.15,13,5,20,0.00
2013-4-20,68.5,57.4,45.7,39.6,33.5,27.1,62,43,22,30.19,30.03,23,9,32,0.00
2013-4-21,67.1,59.2,50.0,49.1,44.1,37.0,73,58,48,30.20,30.08,22,7,27,0.00
2013-4-22,74.9,64.4,50.9,59.0,51.9,43.9,79,65,52,30.13,29.80,24,10,29,0.00
2013-4-23,66.4,48.6,38.6,59.0,43.7,33.0,93,83,72,30.24,29.78,19,9,24,0.02
2013-4-24,59.2,46.2,34.1,33.2,29.3,25.8,82,55,31,30.38,30.24,15,6,24,0.00
2013-4-25,69.7,57.1,39.6,44.3,35.0,29.0,71,46,22,30.38,30.15,15,4,18,0.00
2013-4-26,71.2,63.5,57.2,64.3,54.1,43.7,90,72,51,30.20,29.95,19,8,22,0.01
2013-4-27,69.7,63.3,55.7,65.0,55.5,51.7,92,77,57,30.12,29.94,19,6,22,0.00
2013-4-28,81.2,65.4,49.0,62.2,53.6,47.0,94,70,36,30.05,29.84,12,4,18,0.00
2013-4-29,85.0,72.9,61.0,64.0,59.1,49.0,93,66,32,29.88,29.74,19,7,30,0.00
2013-4-30,80.2,71.6,60.4,62.2,59.6,56.3,87,67,48,29.80,29.72,15,8,25,0.00
2013-5-1,81.4,70.5,62.6,66.1,62.2,54.2,95,77,51,30.03,29.77,14,6,19,0.00
2013-5-2,61.2,45.2,40.1,53.0,39.0,33.5,89,79,70,30.40,30.04,22,12,30,0.03
2013-5-3,62.8,50.2,34.3,35.2,30.2,23.6,87,52,23,30.39,30.05,19,6,31,0.00
2013-5-4,65.0,53.5,42.7,39.6,31.5,16.9,68,47,17,30.08,29.93,20,6,32,0.00
2013-5-5,64.0,55.0,45.9,47.2,42.9,37.0,74,64,53,30.19,30.07,18,6,19,0.00
2013-5-6,76.0,63.6,48.4,52.5,49.4,44.6,88,63,39,30.14,30.00,10,3,13,0.00
2013-5-7,81.0,69.1,57.2,54.2,51.9,46.4,79,57,32,30.09,29.92,10,4,17,0.00
2013-5-8,84.8,72.3,61.7,60.4,53.9,42.6,74,55,23,29.97,29.82,20,8,26,0.00
2013-5-9,74.2,69.2,64.0,66.0,61.2,57.0,92,76,62,29.96,29.83,14,5,23,0.00
2013-5-10,77.2,68.7,62.1,63.1,59.1,54.0,97,74,48,30.08,29.91,13,4,18,0.03
2013-5-11,80.3,67.3,55.1,56.6,52.4,46.5,88,62,32,30.22,30.07,19,5,20,0.12
2013-5-12,76.4,65.2,52.7,52.6,39.8,32.7,68,42,21,30.27,30.12,12,5,16,0.00
2013-5-13,90.5,74.6,57.4,50.0,45.0,38.0,55,37,21,30.19,30.03,17,7,23,0.00
2013-5-14,86.9,76.6,65.6,58.3,53.0,47.0,59,45,27,30.09,29.93,18,8,25,0.00
2013-5-15,76.9,69.2,61.0,68.0,62.9,55.7,95,81,57,29.97,29.69,17,7,24,0.88
2013-5-16,66.7,64.1,61.4,65.0,62.4,60.0,96,94,92,29.84,29.73,12,5,17,0.49
2013-5-17,84.3,72.2,63.8,75.0,68.8,62.8,99,90,67,29.86,29.77,13,5,18,0.00
2013-5-18,89.5,79.5,71.4,72.4,71.0,70.0,96,77,53,29.85,29.69,18,8,28,0.00
2013-5-19,86.1,80.1,72.6,72.0,68.7,64.9,79,69,61,29.77,29.57,27,14,37,0.00
2013-5-20,85.6,75.6,64.0,71.4,67.3,59.0,90,76,52,29.74,29.61,28,10,52,1.54
2013-5-21,69.2,63.2,56.4,67.0,60.2,54.9,96,90,80,29.87,29.67,23,5,39,1.36
2013-5-22,83.1,69.1,53.9,62.1,57.1,50.3,97,70,33,29.95,29.84,9,3,15,0.01
2013-5-23,83.6,72.6,60.2,69.4,63.7,57.6,93,75,49,30.07,29.90,19,6,37,0.44
2013-5-24,80.8,72.4,64.3,72.0,67.3,61.5,92,84,73,30.15,30.04,14,6,18,0.01
2013-5-25,79.1,69.2,65.2,70.1,65.7,62.7,94,89,71,30.18,30.00,20,5,21,0.30
2013-5-26,82.9,74.6,66.6,72.0,69.4,64.8,96,85,67,30.06,29.89,15,8,22,0.00
2013-5-27,81.3,75.3,70.8,71.0,68.8,66.6,91,81,68,29.94,29.74,26,11,29,0.00
2013-5-28,81.0,76.7,71.1,69.0,67.4,65.6,85,73,64,29.83,29.67,21,12,33,0.00
2013-5-29,78.4,73.7,63.3,72.0,68.4,60.9,95,84,72,29.79,29.64,23,11,42,2.64
2013-5-30,86.8,77.2,67.9,73.0,70.1,64.7,94,79,60,29.75,29.61,22,11,33,0.00
2013-5-31,86.9,81.0,75.2,75.0,72.1,70.8,87,75,65,29.77,29.58,24,13,30,0.00
2013-6-1,82.4,75.9,65.1,73.1,65.4,55.0,95,72,40,29.98,29.62,19,7,25,1.12
2013-6-2,77.5,70.0,61.3,58.2,54.9,47.8,85,61,42,30.10,29.95,15,5,20,0.00
2013-6-3,82.6,71.6,59.4,64.6,60.5,55.8,89,70,51,30.00,29.82,11,5,16,0.00
2013-6-4,86.1,75.7,65.8,72.0,67.0,62.8,95,76,57,30.03,29.78,34,8,34,1.08
2013-6-5,84.2,75.3,68.2,73.0,68.0,-99.9,95,80,65,29.97,29.79,15,-2,27,0.83
2013-6-6,75.8,70.7,64.7,69.0,64.7,60.6,96,82,65,29.96,29.83,11,5,20,0.87
2013-6-7,80.7,71.2,61.5,62.6,57.9,52.7,87,65,42,30.01,29.90,8,3,12,0.00
2013-6-8,82.8,74.0,63.5,66.2,60.7,57.6,84,65,47,29.94,29.77,12,6,19,0.00
2013-6-9,88.0,76.6,66.4,68.7,65.3,61.3,94,70,43,29.92,29.80,10,3,13,0.36
2013-6-10,93.7,81.9,70.6,71.6,68.5,65.3,86,66,43,29.93,29.85,8,5,13,0.00
2013-6-11,91.5,82.6,73.0,73.4,69.6,64.8,83,66,51,29.97,29.87,13,7,17,0.00
2013-6-12,91.8,83.1,74.6,74.5,70.9,68.4,82,68,50,30.00,29.89,13,7,19,0.00
2013-6-13,94.6,84.6,74.3,75.0,71.5,68.4,82,66,47,30.01,29.86,7,4,9,0.00
2013-6-14,92.6,85.2,75.2,74.4,71.6,69.7,85,65,49,29.96,29.86,7,3,11,0.00
2013-6-15,87.3,81.3,74.9,75.4,73.4,69.0,91,78,62,29.98,29.87,11,4,17,0.00
2013-6-16,93.6,82.6,71.1,75.0,71.3,67.5,91,70,50,29.99,29.83,8,4,12,0.00
2013-6-17,87.0,76.2,65.9,71.8,68.3,64.1,95,78,59,29.99,29.83,15,5,20,1.27
2013-6-18,85.0,76.5,69.7,70.2,67.6,65.0,90,75,52,30.00,29.90,8,4,13,0.00
2013-6-19,84.7,77.5,69.9,74.1,71.3,67.9,96,82,69,30.00,29.85,9,4,14,0.00
2013-6-20,90.5,82.3,74.9,74.4,71.7,68.6,90,72,50,29.99,29.90,12,7,17,0.00
2013-6-21,90.8,83.2,75.6,74.0,70.7,68.0,81,67,49,30.01,29.91,13,8,21,0.00
2013-6-22,90.6,83.1,75.9,71.4,69.1,66.1,81,64,49,29.99,29.84,14,9,20,0.00
2013-6-23,91.3,83.1,75.6,71.7,69.6,65.8,84,65,44,29.93,29.83,14,9,21,0.00
2013-6-24,90.0,82.6,74.8,71.3,69.8,68.1,80,66,53,29.98,29.84,13,9,18,0.00
2013-6-25,91.5,84.2,76.9,73.9,70.2,66.5,78,63,53,29.92,29.76,17,10,26,0.00
2013-6-26,92.8,84.8,77.4,75.2,70.8,65.2,73,63,55,29.90,29.77,14,8,19,0.00
2013-6-27,98.9,87.1,76.3,76.0,72.5,68.4,82,63,42,29.97,29.81,10,5,14,0.00
2013-6-28,96.3,87.3,78.9,73.1,67.1,63.8,65,52,35,29.96,29.82,10,4,14,0.00
2013-6-29,91.9,84.9,77.1,67.0,63.3,58.8,66,50,35,29.92,29.80,10,4,15,0.00
2013-6-30,85.7,79.5,73.0,63.5,57.6,54.8,58,48,36,29.97,29.82,11,6,18,0.00
2013-7-1,84.4,75.0,65.8,60.9,55.5,49.7,70,52,33,30.06,29.95,11,6,17,0.00
2013-7-2,84.8,76.3,64.0,57.1,53.1,48.7,68,46,30,30.10,30.00,9,4,15,0.00
2013-7-3,86.6,77.7,65.7,57.8,55.2,51.7,75,47,32,30.06,29.94,7,2,9,0.00
2013-7-4,89.5,78.7,68.5,65.5,60.0,55.5,72,55,32,30.01,29.88,8,5,11,0.00
2013-7-5,90.9,80.3,70.7,68.5,64.1,60.9,80,60,38,29.98,29.84,10,5,13,0.05
2013-7-6,92.1,81.9,73.6,68.0,64.2,61.1,66,56,40,29.93,29.83,10,6,15,0.00
2013-7-7,92.2,83.2,73.1,70.5,66.5,64.0,77,58,40,29.98,29.91,9,5,13,0.00
2013-7-8,93.0,83.6,75.5,73.9,70.6,65.2,85,66,47,30.05,29.95,10,6,15,0.00
2013-7-9,96.6,86.5,75.5,71.9,68.1,63.3,72,56,38,30.06,29.92,10,6,16,0.00
2013-7-10,100.6,88.7,78.4,73.9,68.6,63.4,68,53,35,30.00,29.86,8,4,11,0.00
2013-7-11,101.2,88.1,78.6,71.7,68.5,64.9,70,54,31,29.93,29.81,13,4,16,0.00
2013-7-12,95.2,85.3,74.9,72.7,70.5,68.6,87,63,43,29.95,29.86,8,4,11,0.00
2013-7-13,95.2,85.1,75.7,70.8,67.8,64.8,79,58,41,29.98,29.85,9,5,11,0.00
2013-7-14,82.0,71.8,63.8,68.1,65.4,59.8,94,82,50,30.01,29.88,10,3,19,0.70
2013-7-15,73.3,67.2,62.3,68.5,65.0,60.6,97,93,82,30.13,29.98,7,3,9,1.25
2013-7-16,85.2,75.4,69.0,73.0,70.4,68.0,97,85,64,30.20,30.10,9,4,13,0.14
2013-7-17,88.1,79.5,71.7,74.4,71.6,69.8,95,78,56,30.24,30.14,10,4,17,0.02
2013-7-18,93.1,83.0,73.8,73.8,71.2,68.7,93,69,47,30.18,29.99,6,2,8,0.00
2013-7-19,95.5,82.5,74.2,72.6,71.2,69.2,89,70,45,30.03,29.89,13,3,15,0.00
2013-7-20,93.2,81.4,72.6,73.1,70.8,67.6,91,73,45,29.95,29.82,13,4,15,0.00
2013-7-21,94.4,84.0,72.9,73.6,71.5,70.0,92,68,46,29.88,29.79,9,6,14,0.00
2013-7-22,95.0,85.9,76.1,76.2,73.0,70.7,88,67,49,29.90,29.80,11,6,17,0.00
2013-7-23,96.3,87.0,78.8,76.8,73.2,70.5,78,64,48,29.91,29.75,10,6,14,0.00
2013-7-24,89.1,79.6,67.2,73.1,70.0,64.8,94,74,52,30.06,29.79,22,5,22,0.85
2013-7-25,85.9,79.6,72.9,72.5,71.0,69.2,91,76,59,30.06,29.95,6,3,9,0.00
2013-7-26,87.7,77.3,72.0,76.7,72.1,69.6,96,85,66,30.00,29.86,12,6,19,0.92
2013-7-27,84.6,76.0,69.2,69.7,68.1,66.0,92,78,56,30.04,29.92,7,4,10,0.00
2013-7-28,87.1,78.7,70.6,70.8,68.0,64.4,90,71,51,29.98,29.87,10,5,13,0.00
2013-7-29,88.8,80.8,75.0,76.0,72.6,68.6,88,76,63,29.97,29.86,11,6,16,0.03
2013-7-30,92.7,83.6,74.4,77.0,72.7,65.4,87,71,55,30.01,29.90,12,6,17,0.03
2013-7-31,93.5,85.3,77.5,77.6,74.4,71.1,88,71,55,30.02,29.92,7,3,10,0.00
2013-8-1,92.8,84.8,77.1,75.8,73.3,70.2,84,70,51,30.02,29.89,8,5,13,0.00
2013-8-2,100.6,88.0,78.2,73.8,71.5,67.8,81,61,35,29.92,29.79,10,6,13,0.00
2013-8-3,96.7,87.2,78.5,73.1,69.7,66.9,72,57,41,29.99,29.85,8,6,12,0.00
2013-8-4,96.3,86.6,76.1,72.7,70.2,66.8,82,60,39,30.02,29.89,9,5,15,0.00
2013-8-5,100.5,88.8,77.9,73.9,70.3,67.5,77,56,35,29.94,29.77,9,5,14,0.00
2013-8-6,102.0,90.0,79.6,72.5,67.9,63.8,68,50,30,29.85,29.72,11,6,18,0.00
2013-8-7,103.6,90.4,79.8,72.8,69.5,65.8,72,52,31,29.82,29.69,9,5,13,0.00
2013-8-8,97.4,87.5,78.0,73.4,69.6,66.5,79,57,37,29.86,29.73,9,4,12,0.07
2013-8-9,96.6,82.2,74.5,75.1,72.2,66.8,90,73,43,29.98,29.81,16,5,17,0.01
2013-8-10,89.1,80.6,74.0,73.5,70.0,66.6,90,72,48,30.09,29.98,8,5,12,0.00
2013-8-11,97.2,83.7,71.2,72.1,69.6,66.9,91,66,39,30.07,29.94,7,3,10,0.00
2013-8-12,97.9,84.2,76.0,74.4,70.9,68.0,89,67,39,30.00,29.87,13,4,20,0.67
2013-8-13,88.1,79.5,74.2,74.0,72.3,68.4,94,80,53,30.02,29.89,11,4,15,0.07
2013-8-14,86.3,77.2,69.5,71.4,68.8,66.1,92,77,54,30.06,29.95,10,5,13,0.00
2013-8-15,84.7,76.0,68.2,66.8,64.2,59.5,81,68,54,30.08,29.92,8,4,10,0.00
2013-8-16,83.0,72.4,64.3,66.1,64.3,61.6,94,77,54,30.09,29.94,17,4,27,0.06
2013-8-17,83.1,74.0,64.5,64.9,62.1,59.4,86,68,50,30.12,30.00,8,3,12,0.00
2013-8-18,86.1,76.5,66.1,65.7,63.0,60.4,83,65,45,30.11,29.99,7,3,10,0.00
2013-8-19,90.8,79.5,68.5,68.1,63.8,60.8,85,61,39,30.07,29.93,9,4,12,0.00
2013-8-20,92.4,81.5,69.0,66.8,62.3,57.2,79,55,31,30.03,29.92,8,3,10,0.00
2013-8-21,94.2,83.6,72.3,67.9,62.3,57.9,75,51,31,30.06,29.95,9,4,15,0.00
2013-8-22,96.3,85.8,73.8,70.6,66.7,64.1,75,55,37,30.06,29.90,8,3,13,0.00
2013-8-23,96.1,85.2,76.1,72.2,69.2,64.8,80,60,36,30.01,29.90,12,4,15,0.00
2013-8-24,95.6,85.4,74.2,72.4,68.5,63.0,84,59,35,30.06,29.95,9,4,15,0.00
2013-8-25,94.8,85.3,75.5,71.1,67.9,65.0,80,58,38,30.13,30.03,10,4,14,0.00
2013-8-26,92.3,83.5,75.1,70.2,66.4,62.3,77,58,38,30.16,30.03,9,4,19,0.00
2013-8-27,88.4,80.3,72.4,71.6,67.9,62.0,86,67,48,30.10,29.98,10,4,16,0.00
2013-8-28,95.0,83.8,71.7,71.3,67.8,65.3,87,61,38,30.07,29.96,8,3,13,0.00
2013-8-29,100.4,88.1,76.0,68.9,65.9,62.9,73,50,31,30.04,29.91,8,2,14,0.00
2013-8-30,102.5,89.6,76.7,68.3,65.3,61.9,68,47,27,29.98,29.82,7,3,10,0.00
2013-8-31,103.4,90.9,78.2,67.6,64.4,60.1,67,44,26,29.87,29.74,6,3,10,0.00
2013-9-1,104.6,89.3,78.3,73.3,66.9,56.2,67,50,25,29.85,29.74,11,3,19,0.00
2013-9-2,94.4,85.3,78.3,74.5,70.0,61.0,84,62,45,29.97,29.84,9,4,13,0.00
2013-9-3,93.8,81.9,69.9,65.1,61.8,58.4,75,53,31,30.01,29.89,8,5,10,0.00
2013-9-4,94.9,83.9,72.6,70.7,64.9,61.7,75,55,36,30.06,29.96,8,4,12,0.00
2013-9-5,95.5,84.2,73.2,68.9,63.7,60.8,68,52,33,30.10,29.99,7,3,10,0.00
2013-9-6,96.5,84.7,72.4,67.5,63.0,60.8,68,50,32,30.07,29.92,6,3,11,0.00
2013-9-7,97.5,86.5,75.2,68.7,65.1,62.8,68,51,35,29.99,29.87,11,3,15,0.00
2013-9-8,95.6,84.9,72.6,69.9,64.8,59.7,80,54,32,29.95,29.84,9,4,14,0.00
2013-9-9,92.7,83.8,73.9,69.5,63.7,57.9,74,53,32,29.97,29.87,11,5,17,0.00
2013-9-10,91.9,82.7,74.1,69.5,63.6,55.2,77,55,34,30.08,29.93,11,5,17,0.00
2013-9-11,92.9,82.7,72.0,69.6,63.5,57.0,69,53,40,30.12,29.98,8,3,16,0.00
2013-9-12,93.9,82.6,73.2,69.9,67.3,65.5,80,61,41,30.06,29.93,9,3,14,0.00
2013-9-13,91.5,80.9,73.6,70.1,68.4,64.1,83,67,41,29.98,29.85,14,4,18,0.00
2013-9-14,87.9,78.5,69.8,68.9,62.0,55.0,85,59,42,29.99,29.88,10,5,14,0.00
2013-9-15,92.2,81.1,69.1,69.2,62.9,54.7,64,55,43,30.02,29.92,8,4,13,0.00
2013-9-16,91.4,83.2,74.1,68.2,65.0,62.6,70,55,40,30.09,29.95,8,3,11,0.00
2013-9-17,93.2,81.5,74.2,69.8,65.4,60.4,72,59,36,30.05,29.93,8,3,12,0.01
2013-9-18,93.0,84.2,77.3,69.6,66.9,63.6,73,58,39,29.98,29.84,12,5,16,0.00
2013-9-19,90.5,81.7,71.1,70.9,67.7,64.9,91,64,45,29.95,29.85,11,5,18,0.01
2013-9-20,72.6,69.9,64.0,69.4,66.4,57.4,96,89,78,29.97,29.88,9,5,13,0.21
2013-9-21,81.2,69.2,57.8,57.3,49.0,38.4,85,54,23,30.02,29.89,10,5,18,0.00
2013-9-22,81.8,70.3,57.3,52.6,50.3,45.2,78,51,28,29.95,29.80,7,3,10,0.00
2013-9-23,82.8,70.8,58.6,54.9,52.5,50.8,79,55,34,29.87,29.73,10,4,14,0.00
2013-9-24,89.3,75.9,62.2,59.2,49.6,41.0,77,45,20,29.94,29.83,10,3,14,0.00
2013-9-25,90.9,72.1,61.6,55.5,48.8,44.5,59,45,23,29.90,29.77,5,2,10,0.00
2013-10-2,85.7,81.3,75.4,70.2,68.6,67.8,78,66,56,29.88,29.82,12,7,17,0.00
2013-10-3,87.7,79.3,72.3,71.6,69.2,66.7,89,73,52,29.88,29.75,14,9,21,0.00
2013-10-4,86.1,78.7,71.8,70.3,68.5,66.3,91,72,53,29.87,29.78,15,8,21,0.00
2013-10-5,77.8,59.9,49.1,68.1,50.3,39.4,88,71,57,30.12,29.82,14,5,18,0.41
2013-10-6,72.9,59.4,48.6,45.1,36.0,23.8,76,47,16,30.15,30.05,10,3,16,0.00
2013-10-7,77.7,64.7,50.1,43.2,37.4,31.5,67,39,20,30.19,30.08,8,2,9,0.00
2013-10-8,77.6,63.7,52.2,52.6,46.6,41.8,74,56,32,30.13,29.99,9,3,13,0.00
2013-10-9,80.4,67.0,55.1,55.4,52.6,50.1,84,62,36,30.07,29.96,11,5,15,0.00
2013-10-10,80.8,69.1,57.8,63.0,57.5,54.3,89,68,45,30.04,29.85,13,6,18,0.00
2013-10-11,84.0,74.1,65.8,69.5,65.7,58.9,89,76,58,29.88,29.78,15,8,21,0.00
2013-10-12,84.5,75.6,66.7,72.6,68.1,63.4,94,79,52,30.08,29.83,10,4,31,0.72
2013-10-13,73.8,68.8,64.8,68.0,65.2,62.2,95,89,81,30.21,30.08,8,4,12,0.00
2013-10-14,70.7,68.2,65.9,69.4,66.3,63.9,97,94,84,30.15,29.89,11,6,16,2.32
2013-10-15,70.9,59.9,52.4,69.4,57.4,49.3,96,92,83,30.11,29.88,11,6,14,0.50
2013-10-16,63.0,54.9,49.2,51.5,45.0,41.7,94,71,48,30.17,30.06,9,5,14,0.01
2013-10-17,71.6,56.3,43.7,50.6,45.5,41.2,91,70,46,30.15,29.99,6,2,9,0.00
2013-10-18,66.6,56.1,44.4,55.5,49.4,40.8,90,79,53,30.18,29.92,13,4,21,0.03
2013-10-19,66.0,50.3,36.5,41.9,38.4,34.4,92,67,35,30.24,30.09,11,3,14,0.00
2013-10-20,69.5,57.1,42.9,46.9,42.3,38.8,87,60,35,30.09,29.86,13,6,21,0.00
2013-10-21,60.3,54.1,48.5,52.3,46.8,38.7,90,77,63,30.15,29.90,9,4,14,0.00
2013-10-22,76.1,58.2,42.2,49.2,43.7,37.7,86,62,36,30.18,30.02,5,1,9,0.00
2013-10-23,79.4,64.0,51.7,52.1,47.7,44.0,77,57,32,30.15,30.01,7,3,12,0.00
2013-10-24,66.2,59.0,49.4,48.9,43.8,36.2,79,58,40,30.33,30.03,11,6,17,0.00
2013-10-25,62.6,52.3,43.4,44.3,39.2,35.6,77,62,47,30.45,30.26,11,5,16,0.00
2013-10-26,60.3,55.0,50.9,58.6,51.4,44.0,97,88,72,30.26,30.06,8,4,16,0.64
2013-10-27,63.5,58.2,54.4,58.6,56.3,53.3,98,93,82,30.15,30.01,7,2,9,0.00
2013-10-28,68.4,60.4,51.8,64.7,58.6,51.0,98,94,85,30.12,30.01,9,5,11,0.01
2013-10-29,74.3,70.1,66.6,69.0,66.7,64.3,94,89,82,30.06,29.94,13,8,20,0.00
2013-10-30,71.0,68.0,64.0,67.9,65.9,62.8,97,93,87,29.98,29.75,15,10,25,0.10
2013-10-31,67.8,63.9,55.4,65.6,52.8,42.4,98,70,42,29.86,29.64,9,5,20,0.03
2013-11-1,73.7,60.2,49.0,50.2,44.2,41.3,86,59,32,30.12,29.83,10,3,13,0.00
2013-11-2,64.3,55.2,46.7,42.0,35.9,30.8,69,50,29,30.33,30.12,11,4,19,0.00
2013-11-3,62.7,53.9,42.6,45.2,39.0,31.9,81,58,42,30.23,29.98,14,7,21,0.00
2013-11-4,61.0,57.5,54.0,56.9,52.0,45.0,96,82,66,30.09,29.98,15,8,20,0.30
2013-11-5,66.6,61.3,57.9,65.6,60.3,56.8,98,97,95,30.07,29.93,10,6,14,0.90
2013-11-6,67.2,50.0,42.8,66.0,42.0,35.8,96,75,51,30.41,29.94,13,6,21,0.50
2013-11-7,62.9,50.4,38.2,40.9,37.5,34.1,86,63,39,30.53,30.40,5,2,6,0.00
2013-11-8,63.5,53.3,43.5,42.9,39.2,34.3,86,61,34,30.40,30.13,15,6,18,0.00
2013-11-9,66.4,58.6,52.8,52.1,47.8,42.5,76,67,57,30.25,30.11,13,6,16,0.00
2013-11-10,63.1,57.1,52.4,50.9,48.9,47.0,86,74,59,30.37,30.25,5,2,7,0.00
2013-11-11,71.0,60.4,51.1,57.3,52.7,48.0,90,77,58,30.35,30.17,12,2,19,0.00
2013-11-12,57.7,40.5,31.9,51.8,24.7,16.4,87,55,32,30.75,30.35,15,9,25,0.00
2013-11-13,50.1,38.2,27.5,26.9,22.8,17.8,75,55,37,30.75,30.40,9,4,12,0.00
2013-11-14,52.7,44.4,33.0,40.2,30.7,25.7,80,60,40,30.39,30.02,12,6,15,0.00
2013-11-15,66.6,60.2,49.6,55.2,50.3,40.5,92,71,52,30.02,29.82,10,6,16,0.00
2013-11-16,74.1,66.8,58.8,64.5,60.4,55.3,90,80,63,29.82,29.61,18,12,26,0.02
2013-11-17,78.4,69.6,60.8,65.5,49.8,25.7,91,55,26,30.05,29.64,13,6,17,0.00
2013-11-18,67.4,58.7,51.0,36.7,29.9,21.8,47,34,24,30.23,30.05,11,5,16,0.00
2013-11-19,62.4,56.5,53.1,38.9,33.6,27.8,54,43,27,30.20,30.01,11,7,17,0.00
2013-11-20,61.0,55.4,49.0,52.5,39.8,31.8,74,56,44,30.03,29.87,12,9,19,0.00
2013-11-21,66.5,53.3,34.4,65.0,51.7,32.6,96,94,87,30.31,29.97,17,9,23,0.46
2013-11-22,34.2,31.8,30.3,32.4,29.2,27.1,94,90,85,30.56,30.31,15,6,22,0.00
2013-11-23,38.6,34.3,31.6,31.3,28.0,24.9,94,79,58,30.65,30.54,14,5,21,0.30
2013-11-24,33.3,29.5,28.3,25.6,20.7,15.7,85,70,57,30.68,30.38,11,5,14,0.00
2013-11-25,34.1,31.9,28.9,32.3,30.0,25.0,95,93,85,30.41,30.25,7,2,12,0.11
2013-11-26,48.7,39.8,33.9,33.3,29.6,20.5,91,69,42,30.43,30.23,14,8,21,0.01
2013-11-27,42.9,34.1,25.3,20.4,14.8,11.9,63,46,29,30.52,30.38,12,4,20,0.00
2013-11-28,52.2,39.8,29.5,28.6,24.3,18.3,70,55,37,30.48,30.37,8,4,15,0.00
2013-11-29,56.9,44.2,33.2,35.6,30.9,25.8,77,61,36,30.52,30.35,10,5,14,0.00
2013-11-30,63.1,52.1,41.2,50.6,45.2,34.6,90,78,61,30.35,30.14,12,7,16,0.00
2013-12-1,61.9,54.4,48.6,53.9,50.3,46.1,96,86,72,30.15,29.91,8,4,11,0.00
2013-12-2,48.4,42.2,39.8,45.7,40.8,38.8,97,95,91,29.91,29.83,2,0,4,0.01
2013-12-9,29.6,26.0,21.4,21.0,17.7,16.0,80,71,68,30.50,30.30,12,6,18,0.00
2013-12-10,37.1,25.6,14.9,20.0,15.7,11.0,84,68,47,30.58,30.37,13,4,14,0.04
2013-12-11,42.7,31.6,22.4,27.0,23.1,18.0,89,72,52,30.66,30.36,13,4,18,0.01
2013-12-12,42.9,33.8,24.7,31.0,25.5,19.0,80,72,60,30.68,30.32,12,4,14,0.00
2013-12-13,43.5,39.4,36.4,41.0,36.1,30.0,97,88,75,30.32,29.82,16,6,21,0.37
2013-12-14,42.3,37.3,32.7,41.0,31.9,26.0,97,82,63,30.36,29.85,20,6,26,0.01
2013-12-15,58.6,43.0,28.3,35.0,29.1,24.0,85,61,34,30.37,30.23,9,3,14,0.00
2013-12-16,65.1,48.4,35.2,39.0,34.2,29.0,84,61,35,30.25,30.14,9,4,13,0.00
2013-12-17,71.6,52.2,37.1,39.0,33.8,29.0,83,54,25,30.31,30.20,7,1,13,0.00
2013-12-18,68.3,53.9,39.2,48.0,38.0,29.0,75,57,34,30.29,29.96,19,6,24,0.00
2013-12-19,67.6,62.3,54.2,57.2,54.7,47.0,87,76,66,29.95,29.70,26,12,33,0.00
2013-12-20,62.8,42.3,30.7,60.0,39.6,28.6,94,90,83,29.92,29.72,16,6,18,0.09
2013-12-21,37.5,34.9,31.2,37.0,33.5,29.7,97,95,90,29.87,29.62,10,2,15,1.78
2013-12-22,35.8,31.3,25.0,34.0,25.7,21.0,91,80,68,30.46,29.87,16,7,21,0.01
2013-12-23,40.1,28.2,22.1,28.1,23.7,19.9,93,84,58,30.65,30.45,8,3,15,0.00
2013-12-24,48.3,34.1,22.0,34.3,27.7,20.0,92,78,55,30.63,30.27,19,6,22,0.00
2013-12-25,40.8,36.7,31.5,34.0,31.6,28.0,88,82,74,30.47,30.30,13,4,17,0.00
2013-12-26,54.8,40.4,28.3,36.0,29.3,26.0,93,68,36,30.49,30.37,7,2,13,0.00
2013-12-27,58.1,43.4,31.9,35.2,29.1,25.8,85,60,29,30.47,30.35,7,2,11,0.00
2013-12-28,58.2,46.2,35.6,42.0,36.5,31.0,90,70,54,30.35,29.97,15,4,19,0.00
2013-12-29,45.4,34.8,27.5,41.0,27.9,16.0,87,76,62,30.35,29.96,22,7,27,0.00
2013-12-30,41.5,31.5,20.0,19.3,16.0,10.7,71,54,39,30.47,30.32,10,2,13,0.00
2013-12-31,52.9,38.6,26.6,29.0,23.7,17.7,70,56,36,30.47,30.22,13,5,19,0.00
2014-1-1,65.9,42.9,25.8,42.1,30.8,17.0,83,64,37,30.30,29.88,21,8,27,0.00
2014-1-2,38.4,28.4,20.0,19.9,16.4,12.7,76,62,43,30.55,30.30,20,5,24,0.00